createdAt,value
2018-10-01T00:00:18.235Z,6.17
2018-10-01T00:02:49.867Z,5.33
2018-10-01T00:05:21.608Z,5.33
2018-10-01T00:07:53.359Z,5.23
2018-10-01T00:10:25.132Z,5.10
2018-10-01T00:12:56.876Z,5.30
2018-10-01T00:15:28.914Z,5.97
2018-10-01T00:18:00.803Z,5.90
2018-10-01T00:20:37.898Z,5.63
2018-10-01T00:23:09.498Z,5.47
2018-10-01T00:25:41.872Z,6.07
2018-10-01T00:28:13.007Z,5.63
2018-10-01T00:30:52.211Z,6.10
2018-10-01T00:33:39.981Z,5.87
2018-10-01T00:36:11.768Z,5.37
2018-10-01T00:38:43.668Z,4.90
2018-10-01T00:41:15.361Z,5.07
2018-10-01T00:43:47.034Z,5.63
2018-10-01T00:46:20.184Z,6.00
2018-10-01T00:48:52.236Z,5.77
2018-10-01T00:51:23.901Z,6.17
2018-10-01T00:53:55.829Z,6.20
2018-10-01T00:56:27.818Z,5.63
2018-10-01T00:58:59.185Z,5.90
2018-10-01T01:01:31.153Z,5.43
2018-10-01T01:04:02.980Z,5.50
2018-10-01T01:06:34.991Z,5.20
2018-10-01T01:09:07.340Z,5.73
2018-10-01T01:11:39.208Z,5.63
2018-10-01T01:14:11.017Z,5.30
2018-10-01T01:16:42.896Z,5.43
2018-10-01T01:19:14.743Z,5.43
2018-10-01T01:21:46.604Z,5.70
2018-10-01T01:24:18.986Z,5.80
2018-10-01T01:26:50.855Z,5.57
2018-10-01T01:29:22.742Z,5.70
2018-10-01T01:31:53.972Z,6.13
2018-10-01T01:34:26.791Z,6.13
2018-10-01T01:36:58.907Z,6.40
2018-10-01T01:39:30.916Z,6.67
2018-10-01T01:42:03.081Z,6.57
2018-10-01T01:44:35.068Z,6.70
2018-10-01T01:47:07.136Z,6.83
2018-10-01T01:49:39.058Z,6.27
2018-10-01T01:52:11.270Z,6.67
2018-10-01T01:54:43.184Z,6.77
2018-10-01T01:57:14.932Z,6.57
2018-10-01T01:59:46.462Z,6.77
2018-10-01T02:02:18.287Z,7.17
2018-10-01T02:04:50.032Z,6.87
2018-10-01T02:07:22.243Z,7.00
2018-10-01T02:09:53.786Z,7.70
2018-10-01T02:12:25.680Z,6.93
2018-10-01T02:14:57.633Z,6.17
2018-10-01T02:17:29.562Z,6.80
2018-10-01T02:20:01.533Z,6.67
2018-10-01T02:22:33.252Z,6.87
2018-10-01T02:25:04.538Z,6.67
2018-10-01T02:27:36.019Z,7.00
2018-10-01T02:30:07.805Z,7.73
2018-10-01T02:32:39.735Z,7.57
2018-10-01T02:35:11.741Z,7.27
2018-10-01T02:37:42.825Z,6.70
2018-10-01T02:40:13.959Z,6.37
2018-10-01T02:42:45.570Z,7.70
2018-10-01T02:45:17.536Z,7.00
2018-10-01T02:47:49.305Z,7.07
2018-10-01T02:50:21.322Z,7.20
2018-10-01T02:52:58.616Z,7.00
2018-10-01T02:55:30.508Z,7.47
2018-10-01T02:58:01.603Z,6.53
2018-10-01T03:00:33.588Z,7.17
2018-10-01T03:03:05.499Z,7.03
2018-10-01T03:05:37.386Z,6.30
2018-10-01T03:08:08.648Z,6.53
2018-10-01T03:10:40.362Z,5.70
2018-10-01T03:13:11.501Z,5.87
2018-10-01T03:15:43.480Z,5.70
2018-10-01T03:18:15.268Z,5.73
2018-10-01T03:20:46.682Z,5.90
2018-10-01T03:23:18.568Z,6.33
2018-10-01T03:25:50.623Z,6.53
2018-10-01T03:28:22.289Z,5.83
2018-10-01T03:30:54.187Z,6.33
2018-10-01T03:33:26.105Z,6.50
2018-10-01T03:35:57.193Z,7.43
2018-10-01T03:38:29.209Z,6.23
2018-10-01T03:41:01.023Z,5.67
2018-10-01T03:43:33.214Z,5.67
2018-10-01T03:46:05.385Z,6.03
2018-10-01T03:48:37.280Z,5.97
2018-10-01T03:51:09.251Z,5.67
2018-10-01T03:53:41.673Z,5.80
2018-10-01T03:56:13.128Z,5.40
2018-10-01T03:58:45.061Z,5.30
2018-10-01T04:01:16.388Z,5.73
2018-10-01T04:03:49.022Z,5.67
2018-10-01T04:06:20.346Z,6.10
2018-10-01T04:08:51.497Z,5.83
2018-10-01T04:11:23.713Z,5.97
2018-10-01T04:13:55.882Z,6.40
2018-10-01T04:16:27.168Z,6.97
2018-10-01T04:18:58.356Z,6.33
2018-10-01T04:21:32.184Z,6.33
2018-10-01T04:24:04.229Z,5.83
2018-10-01T04:26:36.072Z,6.73
2018-10-01T04:29:07.766Z,6.40
2018-10-01T04:31:39.232Z,5.97
2018-10-01T04:34:10.604Z,5.87
2018-10-01T04:36:42.088Z,5.90
2018-10-01T04:39:14.586Z,5.97
2018-10-01T04:41:46.599Z,5.10
2018-10-01T04:44:17.791Z,5.87
2018-10-01T04:46:49.322Z,5.57
2018-10-01T04:49:21.399Z,5.60
2018-10-01T04:51:53.380Z,5.67
2018-10-01T04:54:24.921Z,5.73
2018-10-01T04:56:56.152Z,6.17
2018-10-01T04:59:28.151Z,5.97
2018-10-01T05:02:01.085Z,6.00
2018-10-01T05:04:32.126Z,6.03
2018-10-01T05:07:03.587Z,6.97
2018-10-01T05:09:34.937Z,6.23
2018-10-01T05:12:07.443Z,5.87
2018-10-01T05:14:38.700Z,6.13
2018-10-01T05:17:10.120Z,7.07
2018-10-01T05:19:42.167Z,7.00
2018-10-01T05:22:14.689Z,6.43
2018-10-01T05:24:45.936Z,6.83
2018-10-01T05:27:17.954Z,7.33
2018-10-01T05:29:49.872Z,6.87
2018-10-01T05:32:21.325Z,7.10
2018-10-01T05:34:53.790Z,6.97
2018-10-01T05:37:25.361Z,7.47
2018-10-01T05:39:57.282Z,7.27
2018-10-01T05:42:28.738Z,6.83
2018-10-01T05:45:00.198Z,7.67
2018-10-01T05:47:32.180Z,7.50
2018-10-01T05:50:05.434Z,7.17
2018-10-01T05:52:36.870Z,6.83
2018-10-01T05:55:08.270Z,7.40
2018-10-01T05:57:40.226Z,7.63
2018-10-01T06:00:11.017Z,7.10
2018-10-01T06:02:42.556Z,6.73
2018-10-01T06:05:14.222Z,6.33
2018-10-01T06:07:46.148Z,6.10
2018-10-01T06:10:16.774Z,6.77
2018-10-01T06:12:48.232Z,6.10
2018-10-01T06:15:19.410Z,5.13
2018-10-01T06:17:51.274Z,5.00
2018-10-01T06:20:22.566Z,5.77
2018-10-01T06:22:53.837Z,5.27
2018-10-01T06:25:24.924Z,4.90
2018-10-01T06:27:56.960Z,4.83
2018-10-01T06:30:28.278Z,5.17
2018-10-01T06:32:59.702Z,5.77
2018-10-01T06:35:31.576Z,5.10
2018-10-01T06:38:03.105Z,4.83
2018-10-01T06:40:33.964Z,6.00
2018-10-01T06:43:05.944Z,5.00
2018-10-01T06:45:42.308Z,5.53
2018-10-01T06:48:13.787Z,4.70
2018-10-01T06:50:46.200Z,5.07
2018-10-01T06:53:18.389Z,5.70
2018-10-01T06:55:50.179Z,4.90
2018-10-01T06:58:21.640Z,5.27
2018-10-01T07:01:01.531Z,6.47
2018-10-01T07:03:33.363Z,6.40
2018-10-01T07:06:05.840Z,6.57
2018-10-01T07:08:37.537Z,8.93
2018-10-01T07:11:08.867Z,7.97
2018-10-01T07:13:40.981Z,7.27
2018-10-01T07:16:12.300Z,6.83
2018-10-01T07:18:44.720Z,5.10
2018-10-01T07:21:16.407Z,4.80
2018-10-01T07:23:47.889Z,4.30
2018-10-01T07:26:20.251Z,4.30
2018-10-01T07:28:51.647Z,4.90
2018-10-01T07:31:23.513Z,4.30
2018-10-01T07:33:55.631Z,4.03
2018-10-01T07:36:27.781Z,5.23
2018-10-01T07:39:01.430Z,4.40
2018-10-01T07:41:33.639Z,6.73
2018-10-01T07:44:04.839Z,6.63
2018-10-01T07:46:37.429Z,9.57
2018-10-01T07:49:09.111Z,4.60
2018-10-01T07:51:41.253Z,5.07
2018-10-01T07:54:13.385Z,4.87
2018-10-01T07:56:44.607Z,5.03
2018-10-01T07:59:15.143Z,4.57
2018-10-01T08:01:47.385Z,4.47
2018-10-01T08:04:19.039Z,4.50
2018-10-01T08:06:50.305Z,5.20
2018-10-01T08:09:22.232Z,4.93
2018-10-01T08:11:54.309Z,4.70
2018-10-01T08:14:24.808Z,5.07
2018-10-01T08:16:59.001Z,4.73
2018-10-01T08:19:30.237Z,4.73
2018-10-01T08:22:02.096Z,4.90
2018-10-01T08:24:33.298Z,5.03
2018-10-01T08:27:04.885Z,4.73
2018-10-01T08:29:36.298Z,5.07
2018-10-01T08:32:08.909Z,5.47
2018-10-01T08:34:40.376Z,5.47
2018-10-01T08:37:11.818Z,5.83
2018-10-01T08:39:43.788Z,5.40
2018-10-01T08:42:15.260Z,4.70
2018-10-01T08:44:47.106Z,4.53
2018-10-01T08:47:19.026Z,5.20
2018-10-01T08:50:04.258Z,6.97
2018-10-01T08:52:41.777Z,8.20
2018-10-01T08:55:13.006Z,6.70
2018-10-01T08:57:45.019Z,7.77
2018-10-01T09:00:15.841Z,5.93
2018-10-01T09:02:50.911Z,6.80
2018-10-01T09:05:22.453Z,7.43
2018-10-01T09:07:54.255Z,7.33
2018-10-01T09:10:25.706Z,6.20
2018-10-01T09:12:57.082Z,6.13
2018-10-01T09:15:29.292Z,6.10
2018-10-01T09:18:01.250Z,6.03
2018-10-01T09:20:32.368Z,6.20
2018-10-01T09:23:03.107Z,6.40
2018-10-01T09:25:35.082Z,7.00
2018-10-01T09:28:07.100Z,6.07
2018-10-01T09:30:38.343Z,6.17
2018-10-01T09:33:09.696Z,6.00
2018-10-01T09:35:41.891Z,6.00
2018-10-01T09:38:13.832Z,6.33
2018-10-01T09:40:45.372Z,6.07
2018-10-01T09:43:17.198Z,10.00
2018-10-01T09:45:49.294Z,6.87
2018-10-01T09:48:20.746Z,9.80
2018-10-01T09:50:52.145Z,7.60
2018-10-01T09:53:24.776Z,8.20
2018-10-01T09:55:56.828Z,7.07
2018-10-01T09:58:28.263Z,8.53
2018-10-01T10:01:05.800Z,7.03
2018-10-01T10:03:37.615Z,9.53
2018-10-01T10:06:10.852Z,8.83
2018-10-01T10:08:42.432Z,11.63
2018-10-01T10:11:14.807Z,8.63
2018-10-01T10:13:48.809Z,8.37
2018-10-01T10:16:21.119Z,8.30
2018-10-01T10:18:52.479Z,8.27
2018-10-01T10:21:24.704Z,8.47
2018-10-01T10:23:57.016Z,8.87
2018-10-01T10:26:28.468Z,7.80
2018-10-01T10:28:59.946Z,7.80
2018-10-01T10:31:32.182Z,7.20
2018-10-01T10:34:04.404Z,7.57
2018-10-01T10:36:35.854Z,8.50
2018-10-01T10:39:09.947Z,8.93
2018-10-01T10:41:42.328Z,7.67
2018-10-01T10:44:13.927Z,8.00
2018-10-01T10:46:45.459Z,7.83
2018-10-01T10:49:17.903Z,8.13
2018-10-01T10:51:48.470Z,8.27
2018-10-01T10:54:19.816Z,7.93
2018-10-01T10:59:26.505Z,7.57
2018-10-01T11:01:58.132Z,8.33
2018-10-01T11:04:34.150Z,7.97
2018-10-01T11:07:05.125Z,8.40
2018-10-01T11:09:39.410Z,7.67
2018-10-01T11:12:13.550Z,9.13
2018-10-01T11:14:44.518Z,9.33
2018-10-01T11:17:15.854Z,9.17
2018-10-01T11:19:47.681Z,9.63
2018-10-01T11:22:23.623Z,9.77
